TAF and METAR

Decoding for American and Canadian METARs and TAFs is not fully implemented.

Could not understand the following METAR

CYKY 251400Z 07007KT 6SM BR FEW100 SCT240 M28/M32 A3006 RMK AC2CI1 SLP264
No TAF available for Kindersley Airport
Kindersley Airport in Canada at 694m

Latest 5 airports